Aviation Digital Data Service (ADDS)

Output produced by METARs form (1344 UTC 26 May 2018)
found at http://www.aviationweather.gov/adds/metars/
 
EHKD 261325Z AUTO 04011KT 350V080 9999 FEW360 22/18 Q1021 BLU 050012KT CAVOK
TAF EHKD 260814Z 2609/2621 05014KT CAVOK
       
EHDL 261325Z AUTO 08008KT 040V210 9999 SCT065 BKN340 28/12 Q1020 BLU
EHGG 261325Z AUTO 07011KT 050V120 9999 NCD 27/13 Q1021 NOSIG
TAF EHGG 261045Z 2612/2718 08009KT CAVOK
       
EHEH 261325Z AUTO 13008KT 040V170 9999 OVC150 28/14 Q1019 BLU 10008KT 9999 FEW045 BKN170
TAF EHEH 261119Z 2612/2718 12008KT CAVOK 
     PROB30 2617/2619 FEW060CB 
     PROB40 
     TEMPO 1709/2713 -RA -SHRA FEW060CB BKN100 
     PROB30 
     TEMPO 2713/2718 VRB13G25KT 4000 SHRA TSRA SCT050CB BKN070
       
EHGR 261335Z AUTO 10008KT 040V170 9999 SCT053 29/15 Q1019 BLU 10009KT CAVOK
TAF EHGR 260829Z 2609/2621 10008KT CAVOK
       
EHLW 261325Z AUTO 05012KT 010V100 9999 NCD 25/16 Q1021 BLU
EHBK 261325Z AUTO 06010KT 020V100 9999 NSC 27/16 Q1019 NOSIG
TAF EHBK 261059Z 2612/2718 10009KT CAVOK 
     PROB40 
     TEMPO 2710/2718 VRB15G25KT 4000 SHRA TSRA SCT040CB
       
EHRD 261325Z AUTO 10010KT 060V130 9999 NSC 29/14 Q1019 NOSIG
TAF EHRD 261048Z 2612/2718 09010KT CAVOK
       
EHAM 261325Z 05011KT 010V080 9999 FEW038 26/17 Q1020 NOSIG
TAF EHAM 261048Z 2612/2718 05010KT CAVOK
       
EHVK 261325Z AUTO 09006KT 030V120 9999 FEW310 28/15 Q1019 BLU
EHWO 261325Z AUTO 09008KT 050V130 9999 FEW052 BKN290 28/17 Q1018 BLU